Time;durP1;ratioP1;P1;durP2;ratioP2;P2;SDS_P1;SDS_P2;PMS_P1;PMS_P2;Temp;Humidity;BMP_temperature;BMP_pressure;BME280_temperature;BME280_humidity;BME280_pressure;Samples;Min_cycle;Max_cycle;Signal;HPM_P1;HPM_P2
2024/03/31 00:00:45;;;;;;;;;;;;;;;12.98;56.36;96254.34;5089307;28;20408;-61
2024/03/31 00:03:32;;;;;;;;;;;;;;;12.96;56.61;96242.25;5081863;28;19959;-60
2024/03/31 00:06:20;;;;;;;;;;;;;;;12.98;56.50;96248.13;5098927;28;20013;-60
2024/03/31 00:09:06;;;;;;;;;;;;;;;12.89;56.85;96242.94;5087030;28;20010;-61
2024/03/31 00:11:54;;;;;;;;;;;;;;;12.94;56.84;96222.72;5092281;28;20384;-62
2024/03/31 00:14:40;;;;;;;;;;;;;;;12.79;57.16;96200.75;5101198;27;19928;-61
2024/03/31 00:17:27;;;;;;;;;;;;;;;12.73;57.17;96206.84;5120083;27;19931;-60
2024/03/31 00:20:15;;;;;;;;;;;;;;;12.69;57.86;96209.53;5115921;27;19934;-60
2024/03/31 00:23:04;;;;;;;;;;;;;;;12.78;57.54;96214.72;5093471;28;20011;-60
2024/03/31 00:25:55;;;;;;;;;;;;;;;12.77;57.81;96216.66;5081681;28;19927;-61
2024/03/31 00:28:42;;;;;;;;;;;;;;;12.79;57.36;96210.84;5109861;27;19932;-60
2024/03/31 00:31:28;;;;;;;;;;;;;;;12.78;57.51;96196.44;5072854;28;20301;-59
2024/03/31 00:34:15;;;;;;;;;;;;;;;12.68;57.41;96194.34;5083631;28;19932;-60
2024/03/31 00:37:03;;;;;;;;;;;;;;;12.65;57.44;96205.19;5084049;28;19928;-60
2024/03/31 00:39:50;;;;;;;;;;;;;;;12.63;57.81;96200.13;5096785;28;19930;-60
2024/03/31 00:42:37;;;;;;;;;;;;;;;12.67;57.90;96202.88;5083742;28;20024;-60
2024/03/31 00:45:23;;;;;;;;;;;;;;;12.67;57.78;96191.97;5124737;27;20043;-60
2024/03/31 00:48:10;;;;;;;;;;;;;;;12.57;58.30;96186.03;5078368;27;19931;-62
2024/03/31 00:50:56;;;;;;;;;;;;;;;12.55;57.82;96174.69;5096414;28;19924;-60
2024/03/31 00:53:43;;;;;;;;;;;;;;;12.58;57.94;96173.97;5097524;28;19931;-59
2024/03/31 00:56:33;;;;;;;;;;;;;;;12.54;58.09;96189.47;5082130;28;19940;-63
2024/03/31 00:59:20;;;;;;;;;;;;;;;12.53;58.07;96196.06;5067846;28;19982;-60
2024/03/31 01:02:07;;;;;;;;;;;;;;;12.54;58.07;96205.81;5116565;27;19924;-59
2024/03/31 01:04:54;;;;;;;;;;;;;;;12.42;58.32;96214.19;5111647;27;19924;-60
2024/03/31 01:07:40;;;;;;;;;;;;;;;12.26;59.36;96216.25;5090717;28;19931;-60
2024/03/31 01:10:28;;;;;;;;;;;;;;;12.20;59.41;96207.59;5087678;28;19938;-61
2024/03/31 01:13:15;;;;;;;;;;;;;;;12.20;59.56;96217.69;5086378;28;19928;-60
2024/03/31 01:16:03;;;;;;;;;;;;;;;12.23;59.56;96216.97;5074288;28;20365;-61
2024/03/31 01:18:49;;;;;;;;;;;;;;;12.22;59.26;96212.66;5105860;27;19924;-60
2024/03/31 01:21:37;;;;;;;;;;;;;;;12.21;59.45;96219.28;5089454;28;19932;-59
2024/03/31 01:24:28;;;;;;;;;;;;;;;12.26;59.25;96221.69;5100215;27;19928;-60
2024/03/31 01:27:15;;;;;;;;;;;;;;;12.17;59.43;96219.19;5068959;28;19938;-60
2024/03/31 01:30:01;;;;;;;;;;;;;;;12.09;59.83;96209.34;5096775;28;19927;-60
2024/03/31 01:32:49;;;;;;;;;;;;;;;11.93;60.51;96209.47;5122755;27;19950;-61
2024/03/31 01:35:35;;;;;;;;;;;;;;;11.80;60.63;96199.84;5077956;28;20381;-62
2024/03/31 01:38:22;;;;;;;;;;;;;;;11.84;60.59;96205.38;5102294;27;20293;-60
2024/03/31 01:41:09;;;;;;;;;;;;;;;11.79;60.75;96217.31;5108574;27;19927;-60
2024/03/31 01:43:57;;;;;;;;;;;;;;;11.83;60.95;96226.38;5079773;28;19950;-60
2024/03/31 01:46:43;;;;;;;;;;;;;;;11.89;60.68;96237.75;5082149;28;19946;-63
2024/03/31 01:49:30;;;;;;;;;;;;;;;11.94;60.33;96238.22;5108262;27;19970;-60
2024/03/31 01:52:17;;;;;;;;;;;;;;;11.96;60.71;96238.66;5095500;27;20444;-60
2024/03/31 01:55:09;;;;;;;;;;;;;;;11.91;60.75;96238.94;5059899;28;19927;-60
2024/03/31 01:57:56;;;;;;;;;;;;;;;11.83;60.91;96259.03;5074460;28;19938;-60
2024/03/31 02:00:43;;;;;;;;;;;;;;;11.92;60.68;96258.78;5098133;27;19927;-60
2024/03/31 02:03:30;;;;;;;;;;;;;;;11.91;60.82;96258.00;5091068;27;20079;-59
2024/03/31 02:06:17;;;;;;;;;;;;;;;11.79;60.95;96250.75;5096266;28;20417;-60
2024/03/31 02:09:03;;;;;;;;;;;;;;;11.86;61.12;96265.66;5094913;28;19934;-60
2024/03/31 02:11:50;;;;;;;;;;;;;;;11.77;61.22;96268.56;5066142;27;20365;-62
2024/03/31 02:14:38;;;;;;;;;;;;;;;11.82;61.03;96289.28;5095219;27;19931;-60
2024/03/31 02:17:25;;;;;;;;;;;;;;;11.79;60.71;96296.22;5080884;28;20317;-61
2024/03/31 02:20:11;;;;;;;;;;;;;;;11.72;60.80;96305.03;5109125;27;19927;-59
2024/03/31 02:22:58;;;;;;;;;;;;;;;11.67;60.77;96309.97;5088582;28;19938;-60
2024/03/31 02:25:44;;;;;;;;;;;;;;;11.61;60.89;96303.22;5080266;28;19931;-60
2024/03/31 02:28:32;;;;;;;;;;;;;;;11.57;61.17;96310.53;5069619;28;20052;-60
2024/03/31 02:31:20;;;;;;;;;;;;;;;11.52;61.13;96308.88;5103602;27;20364;-60
2024/03/31 02:34:08;;;;;;;;;;;;;;;11.47;61.41;96322.75;5068662;28;20019;-60
2024/03/31 02:36:54;;;;;;;;;;;;;;;11.42;61.61;96326.53;5081935;28;20011;-59
2024/03/31 02:39:42;;;;;;;;;;;;;;;11.34;62.00;96330.22;5093008;27;19941;-60
2024/03/31 02:42:29;;;;;;;;;;;;;;;11.52;61.41;96327.91;5095262;27;19924;-59
2024/03/31 02:45:16;;;;;;;;;;;;;;;11.42;61.48;96336.63;5075540;28;20007;-59
2024/03/31 02:48:05;;;;;;;;;;;;;;;11.40;61.62;96336.16;5083403;28;19978;-59
2024/03/31 02:50:52;;;;;;;;;;;;;;;11.45;61.77;96331.28;5066060;28;19935;-60
2024/03/31 02:53:38;;;;;;;;;;;;;;;11.45;61.67;96327.72;5067745;28;19928;-60
2024/03/31 02:56:27;;;;;;;;;;;;;;;11.34;61.92;96330.22;5092528;27;19927;-62
2024/03/31 02:59:14;;;;;;;;;;;;;;;11.42;61.61;96329.25;5080832;28;19936;-61
2024/03/31 03:02:01;;;;;;;;;;;;;;;11.41;61.54;96319.53;5063844;28;20037;-60
2024/03/31 03:04:49;;;;;;;;;;;;;;;11.42;61.65;96326.53;5058868;28;19927;-64
2024/03/31 03:07:37;;;;;;;;;;;;;;;11.54;61.54;96326.41;5091619;27;20621;-60
2024/03/31 03:10:25;;;;;;;;;;;;;;;11.40;61.63;96312.50;5093158;28;19949;-63
2024/03/31 03:13:13;;;;;;;;;;;;;;;11.50;61.81;96311.97;5083440;28;20057;-60
2024/03/31 03:16:00;;;;;;;;;;;;;;;11.60;61.33;96296.19;5084008;28;19924;-60
2024/03/31 03:18:47;;;;;;;;;;;;;;;11.63;61.53;96288.13;5092815;28;20473;-61
2024/03/31 03:21:35;;;;;;;;;;;;;;;11.65;61.66;96252.41;5080151;28;20328;-62
2024/03/31 03:24:22;;;;;;;;;;;;;;;11.57;61.58;96218.06;5105487;27;19936;-60
2024/03/31 03:27:08;;;;;;;;;;;;;;;11.54;61.61;96220.31;5068263;28;19935;-60
2024/03/31 03:29:56;;;;;;;;;;;;;;;11.47;62.13;96252.81;5073839;28;19923;-61
2024/03/31 03:32:42;;;;;;;;;;;;;;;11.52;61.87;96243.59;5091601;28;20073;-60
2024/03/31 03:35:30;;;;;;;;;;;;;;;11.59;62.04;96226.63;5078797;28;19928;-60
2024/03/31 03:38:25;;;;;;;;;;;;;;;11.59;61.91;96226.63;5093282;28;19946;-60
2024/03/31 03:41:14;;;;;;;;;;;;;;;11.64;61.46;96234.50;5058625;28;20487;-61
2024/03/31 03:44:02;;;;;;;;;;;;;;;11.64;61.35;96216.25;5065120;28;20022;-60
2024/03/31 03:46:48;;;;;;;;;;;;;;;11.58;61.73;96204.09;5085085;28;19924;-59
2024/03/31 03:49:35;;;;;;;;;;;;;;;11.54;61.85;96195.84;5114354;27;19924;-60
2024/03/31 03:52:22;;;;;;;;;;;;;;;11.53;62.08;96197.00;5069568;28;20051;-60
2024/03/31 03:55:11;;;;;;;;;;;;;;;11.53;61.96;96207.09;5102325;28;19936;-60
2024/03/31 03:57:59;;;;;;;;;;;;;;;11.54;62.03;96192.34;5064589;28;19970;-60
2024/03/31 04:00:46;;;;;;;;;;;;;;;11.48;62.27;96172.81;5100272;28;19953;-62
2024/03/31 04:03:32;;;;;;;;;;;;;;;11.41;62.50;96193.66;5081687;28;19931;-61
2024/03/31 04:06:20;;;;;;;;;;;;;;;11.40;62.70;96220.06;5098300;28;19924;-60
2024/03/31 04:09:06;;;;;;;;;;;;;;;11.44;62.45;96231.00;5109554;27;19936;-60
2024/03/31 04:11:55;;;;;;;;;;;;;;;11.50;62.64;96249.41;5073796;28;19928;-60
2024/03/31 04:14:41;;;;;;;;;;;;;;;11.48;62.04;96243.53;5083470;28;20430;-60
2024/03/31 04:17:28;;;;;;;;;;;;;;;11.54;62.27;96252.19;5066951;28;20373;-63
2024/03/31 04:20:14;;;;;;;;;;;;;;;11.64;62.21;96243.44;5064848;27;19927;-61
2024/03/31 04:23:01;;;;;;;;;;;;;;;11.69;61.36;96223.34;5074012;28;19930;-61
2024/03/31 04:25:48;;;;;;;;;;;;;;;11.65;61.68;96227.91;5116088;27;19950;-61
2024/03/31 04:28:36;;;;;;;;;;;;;;;11.79;61.25;96230.91;5111381;27;20323;-61
2024/03/31 04:31:23;;;;;;;;;;;;;;;11.79;61.05;96230.91;5094536;27;20372;-60
2024/03/31 04:34:12;;;;;;;;;;;;;;;11.83;61.11;96220.16;5092574;27;19992;-61
2024/03/31 04:36:59;;;;;;;;;;;;;;;11.81;61.24;96217.72;5086842;28;20562;-60
2024/03/31 04:39:46;;;;;;;;;;;;;;;11.68;61.22;96219.84;5095338;28;20115;-60
2024/03/31 04:42:32;;;;;;;;;;;;;;;11.64;61.38;96234.50;5111536;27;19928;-60
2024/03/31 04:45:21;;;;;;;;;;;;;;;11.60;61.56;96234.44;5129245;27;19931;-60
2024/03/31 04:48:07;;;;;;;;;;;;;;;11.75;61.49;96219.16;5097232;28;19924;-61
2024/03/31 04:50:54;;;;;;;;;;;;;;;11.62;61.80;96234.09;5080088;28;20394;-60
2024/03/31 04:53:43;;;;;;;;;;;;;;;11.51;62.42;96231.94;5106723;27;19924;-60
2024/03/31 04:56:31;;;;;;;;;;;;;;;11.57;62.10;96237.09;5077696;28;19932;-60
2024/03/31 04:59:17;;;;;;;;;;;;;;;11.66;61.74;96218.59;5109849;27;20042;-60
2024/03/31 05:02:05;;;;;;;;;;;;;;;11.55;61.78;96243.66;5085926;28;20004;-60
2024/03/31 05:04:52;;;;;;;;;;;;;;;11.70;61.86;96241.22;5085080;28;20024;-61
2024/03/31 05:07:39;;;;;;;;;;;;;;;11.52;62.38;96252.53;5082082;28;20510;-60
2024/03/31 05:10:25;;;;;;;;;;;;;;;11.50;62.60;96248.59;5093814;27;19943;-65
2024/03/31 05:13:13;;;;;;;;;;;;;;;11.32;62.71;96259.09;5073397;28;19928;-61
2024/03/31 05:15:59;;;;;;;;;;;;;;;11.38;62.85;96260.41;5102042;27;19924;-60
2024/03/31 05:18:51;;;;;;;;;;;;;;;11.42;62.65;96261.25;5119716;27;19927;-60
2024/03/31 05:21:39;;;;;;;;;;;;;;;11.44;62.83;96253.53;5078984;28;20387;-61
2024/03/31 05:24:26;;;;;;;;;;;;;;;11.36;62.82;96259.97;5077504;28;19977;-60
2024/03/31 05:27:13;;;;;;;;;;;;;;;11.50;63.04;96260.28;5070239;28;19935;-60
2024/03/31 05:30:00;;;;;;;;;;;;;;;11.46;62.78;96273.00;5108349;27;19947;-61
2024/03/31 05:32:47;;;;;;;;;;;;;;;11.54;62.28;96266.56;5104788;27;19927;-61
2024/03/31 05:35:55;;;;;;;;;;;;;;;11.63;62.36;96276.47;5091449;28;19924;-60
2024/03/31 05:38:44;;;;;;;;;;;;;;;11.70;61.78;96290.19;5118306;27;20381;-60
2024/03/31 05:41:34;;;;;;;;;;;;;;;11.70;61.96;96282.03;5077731;28;19927;-61
2024/03/31 05:44:22;;;;;;;;;;;;;;;11.68;62.11;96278.91;5106735;27;19942;-60
2024/03/31 05:47:08;;;;;;;;;;;;;;;11.76;62.06;96277.88;5077271;28;19928;-60
2024/03/31 05:49:56;;;;;;;;;;;;;;;11.81;61.87;96274.88;5102819;27;19923;-60
2024/03/31 05:52:44;;;;;;;;;;;;;;;11.86;61.54;96274.59;5081765;28;19971;-61
2024/03/31 05:55:31;;;;;;;;;;;;;;;11.68;62.20;96278.91;5089700;27;19924;-61
2024/03/31 05:58:19;;;;;;;;;;;;;;;11.68;61.95;96282.41;5100613;27;20412;-61
2024/03/31 06:01:07;;;;;;;;;;;;;;;11.68;61.98;96284.34;5074965;28;20292;-62
2024/03/31 06:03:53;;;;;;;;;;;;;;;11.72;61.89;96285.97;5088682;28;19931;-60
2024/03/31 06:06:42;;;;;;;;;;;;;;;11.72;61.86;96283.25;5090785;28;19931;-61
2024/03/31 06:09:29;;;;;;;;;;;;;;;11.79;61.92;96290.78;5106036;28;20288;-61
2024/03/31 06:12:17;;;;;;;;;;;;;;;11.87;61.39;96289.78;5078194;28;19976;-60
2024/03/31 06:15:03;;;;;;;;;;;;;;;11.86;61.66;96288.22;5066413;28;19950;-60
2024/03/31 06:17:50;;;;;;;;;;;;;;;12.02;61.22;96299.81;5074961;27;19923;-61
2024/03/31 06:20:36;;;;;;;;;;;;;;;11.93;61.15;96291.09;5094431;28;20514;-60
2024/03/31 06:23:23;;;;;;;;;;;;;;;11.92;61.22;96294.94;5081560;27;19927;-61
2024/03/31 06:26:11;;;;;;;;;;;;;;;11.95;61.39;96294.22;5086839;27;20014;-62
2024/03/31 06:29:01;;;;;;;;;;;;;;;11.96;60.89;96305.91;5082043;27;19936;-63
2024/03/31 06:31:47;;;;;;;;;;;;;;;11.93;60.91;96309.31;5112776;27;19924;-62
2024/03/31 06:34:34;;;;;;;;;;;;;;;11.84;60.91;96308.78;5102763;27;19963;-62
2024/03/31 06:37:20;;;;;;;;;;;;;;;11.67;61.37;96307.25;5083835;27;20018;-61
2024/03/31 06:40:10;;;;;;;;;;;;;;;11.49;61.97;96313.06;5083816;27;20306;-60
2024/03/31 06:42:57;;;;;;;;;;;;;;;11.43;62.30;96300.91;5088097;28;20045;-60
2024/03/31 06:45:45;;;;;;;;;;;;;;;11.45;62.66;96301.34;5090155;28;20034;-60
2024/03/31 06:48:31;;;;;;;;;;;;;;;11.51;62.07;96297.22;5087255;27;19972;-60
2024/03/31 06:51:18;;;;;;;;;;;;;;;11.38;62.67;96297.69;5089794;27;19932;-61
2024/03/31 06:54:04;;;;;;;;;;;;;;;11.40;62.68;96315.22;5096087;27;19923;-60
2024/03/31 06:56:52;;;;;;;;;;;;;;;11.45;62.66;96306.78;5084855;28;19923;-61
2024/03/31 06:59:39;;;;;;;;;;;;;;;11.37;63.07;96315.94;5068540;28;19976;-62
2024/03/31 07:02:27;;;;;;;;;;;;;;;11.47;63.24;96315.38;5075874;28;19924;-61
2024/03/31 07:05:16;;;;;;;;;;;;;;;11.45;63.20;96328.56;5082874;28;19924;-61
2024/03/31 07:08:03;;;;;;;;;;;;;;;11.39;63.07;96324.50;5069036;28;20527;-59
2024/03/31 07:10:49;;;;;;;;;;;;;;;11.47;63.09;96318.09;5081260;28;20392;-61
2024/03/31 07:13:37;;;;;;;;;;;;;;;11.58;62.77;96317.53;5102781;28;19973;-61
2024/03/31 07:16:24;;;;;;;;;;;;;;;11.59;62.95;96324.53;5071045;28;19932;-61
2024/03/31 07:19:12;;;;;;;;;;;;;;;11.55;62.55;96303.50;5087518;28;19977;-61
2024/03/31 07:22:00;;;;;;;;;;;;;;;11.55;62.65;96319.03;5102892;28;20030;-61
2024/03/31 07:24:47;;;;;;;;;;;;;;;11.57;62.55;96307.81;5083710;28;19928;-61
2024/03/31 07:27:34;;;;;;;;;;;;;;;11.53;62.79;96319.38;5119853;27;19951;-60
2024/03/31 07:30:20;;;;;;;;;;;;;;;11.54;62.17;96317.44;5112881;27;19924;-61
2024/03/31 07:33:09;;;;;;;;;;;;;;;11.45;62.75;96312.22;5101447;28;19932;-61
2024/03/31 07:35:58;;;;;;;;;;;;;;;11.51;62.48;96310.81;5075358;28;19924;-61
2024/03/31 07:38:44;;;;;;;;;;;;;;;11.52;62.69;96309.66;5123667;27;19942;-61
2024/03/31 07:41:31;;;;;;;;;;;;;;;11.55;62.84;96308.16;5090519;28;20018;-60
2024/03/31 07:44:18;;;;;;;;;;;;;;;11.70;62.80;96304.56;5082170;28;19935;-60
2024/03/31 07:47:04;;;;;;;;;;;;;;;11.74;62.68;96305.44;5122743;27;19932;-60
2024/03/31 07:49:52;;;;;;;;;;;;;;;11.84;62.79;96297.91;5083934;28;19976;-60
2024/03/31 07:52:41;;;;;;;;;;;;;;;11.96;62.55;96287.63;5093866;27;19931;-61
2024/03/31 07:55:27;;;;;;;;;;;;;;;12.13;61.84;96280.16;5107408;27;19928;-61
2024/03/31 07:58:14;;;;;;;;;;;;;;;12.12;61.36;96284.81;5116324;27;19977;-60
2024/03/31 08:01:00;;;;;;;;;;;;;;;12.39;60.93;96285.69;5096230;27;19924;-61
2024/03/31 08:03:47;;;;;;;;;;;;;;;12.55;60.91;96278.19;5128985;27;19932;-60
2024/03/31 08:06:35;;;;;;;;;;;;;;;12.70;60.31;96281.16;5096196;27;19931;-61
2024/03/31 08:09:24;;;;;;;;;;;;;;;12.72;59.80;96273.41;5092449;28;20451;-61
2024/03/31 08:12:10;;;;;;;;;;;;;;;12.68;59.90;96264.41;5082796;28;20423;-61
2024/03/31 08:14:57;;;;;;;;;;;;;;;12.72;59.13;96259.78;5099406;27;19970;-60
2024/03/31 08:17:43;;;;;;;;;;;;;;;12.72;59.16;96243.44;5100249;27;19942;-60
2024/03/31 08:20:32;;;;;;;;;;;;;;;12.85;58.95;96250.28;5097990;27;19938;-61
2024/03/31 08:23:19;;;;;;;;;;;;;;;12.98;58.94;96250.84;5104609;27;19924;-61
2024/03/31 08:26:07;;;;;;;;;;;;;;;13.06;58.83;96247.84;5092115;28;20074;-61
2024/03/31 08:28:53;;;;;;;;;;;;;;;13.22;57.95;96249.66;5094300;28;19932;-61
2024/03/31 08:31:41;;;;;;;;;;;;;;;13.39;57.72;96248.31;5090965;27;19942;-61
2024/03/31 08:34:27;;;;;;;;;;;;;;;13.33;56.76;96251.38;5094909;27;19947;-61
2024/03/31 08:37:15;;;;;;;;;;;;;;;13.36;56.98;96245.16;5092345;27;19955;-62
2024/03/31 08:40:03;;;;;;;;;;;;;;;13.54;56.13;96247.34;5115798;27;19931;-63
2024/03/31 08:42:52;;;;;;;;;;;;;;;13.67;55.82;96247.91;5089066;27;20589;-62
2024/03/31 08:45:39;;;;;;;;;;;;;;;13.76;55.71;96238.25;5118232;27;19928;-59
2024/03/31 08:48:26;;;;;;;;;;;;;;;13.76;55.31;96234.75;5088922;28;19931;-60
2024/03/31 08:51:12;;;;;;;;;;;;;;;13.79;54.85;96228.53;5092990;27;19924;-59
2024/03/31 08:53:59;;;;;;;;;;;;;;;13.73;55.80;96230.03;5093964;28;19923;-59
2024/03/31 08:56:47;;;;;;;;;;;;;;;13.68;55.51;96227.63;5090938;27;19983;-58
2024/03/31 08:59:34;;;;;;;;;;;;;;;13.79;55.51;96226.59;5091031;27;20292;-58
2024/03/31 09:02:21;;;;;;;;;;;;;;;13.89;54.98;96214.22;5082513;28;19931;-60
2024/03/31 09:05:09;;;;;;;;;;;;;;;13.86;54.54;96201.34;5094392;28;20521;-60
2024/03/31 09:07:58;;;;;;;;;;;;;;;14.05;54.83;96206.59;5094558;28;19924;-59
2024/03/31 09:10:45;;;;;;;;;;;;;;;14.11;54.67;96199.66;5089708;28;19974;-59
2024/03/31 09:13:34;;;;;;;;;;;;;;;14.13;53.94;96204.72;5116775;27;20395;-58
2024/03/31 09:16:24;;;;;;;;;;;;;;;14.08;53.99;96196.88;5118466;27;19928;-60
2024/03/31 09:19:11;;;;;;;;;;;;;;;13.92;54.22;96205.28;5093167;22;19946;-87
2024/03/31 09:21:58;;;;;;;;;;;;;;;14.00;54.68;96223.31;5078331;28;19924;-89
2024/03/31 09:24:45;;;;;;;;;;;;;;;14.19;53.98;96233.25;5076674;28;19981;-90
2024/03/31 09:27:32;;;;;;;;;;;;;;;14.17;54.16;96227.41;5077804;28;19924;-87
2024/03/31 09:30:20;;;;;;;;;;;;;;;14.36;53.67;96223.66;5074703;28;20019;-86
2024/03/31 09:33:07;;;;;;;;;;;;;;;14.45;53.75;96228.81;5077475;28;20015;-87
2024/03/31 09:35:56;;;;;;;;;;;;;;;14.51;53.11;96230.06;5085392;28;20001;-85
2024/03/31 09:38:43;;;;;;;;;;;;;;;14.42;52.97;96222.94;5087176;28;20035;-90
2024/03/31 09:41:29;;;;;;;;;;;;;;;14.33;52.95;96221.69;5070164;28;19973;-87
2024/03/31 09:44:17;;;;;;;;;;;;;;;14.47;52.35;96223.75;5072425;28;19924;-87
2024/03/31 09:47:05;;;;;;;;;;;;;;;14.61;52.21;96218.44;5086587;28;20570;-87
2024/03/31 09:49:55;;;;;;;;;;;;;;;14.75;52.46;96229.47;5070960;28;20018;-88
2024/03/31 09:52:42;;;;;;;;;;;;;;;14.97;51.71;96219.50;5071734;28;19933;-88
2024/03/31 09:55:30;;;;;;;;;;;;;;;14.97;51.32;96213.22;5088006;28;19931;-88
2024/03/31 09:58:16;;;;;;;;;;;;;;;14.96;51.23;96223.38;5088372;28;19928;-89
2024/03/31 10:01:06;;;;;;;;;;;;;;;15.07;51.06;96216.00;5078157;28;20109;-87
2024/03/31 10:03:57;;;;;;;;;;;;;;;15.16;51.32;96205.53;5069183;28;19928;-86
2024/03/31 10:06:44;;;;;;;;;;;;;;;15.25;51.13;96212.63;5084469;28;20403;-85
2024/03/31 10:09:31;;;;;;;;;;;;;;;15.27;50.50;96210.25;5068869;28;19940;-86
2024/03/31 10:12:18;;;;;;;;;;;;;;;15.27;50.60;96210.25;5085148;28;19932;-86
2024/03/31 10:15:05;;;;;;;;;;;;;;;15.33;50.59;96212.25;5080290;28;19951;-86
2024/03/31 10:17:52;;;;;;;;;;;;;;;15.33;51.29;96214.19;5072400;28;20000;-86
2024/03/31 10:20:40;;;;;;;;;;;;;;;15.39;51.34;96209.94;5068487;28;19936;-89
2024/03/31 10:23:27;;;;;;;;;;;;;;;15.40;50.78;96219.72;5070087;28;19928;-89
2024/03/31 10:26:13;;;;;;;;;;;;;;;15.38;51.12;96220.09;5075215;28;20197;-91
2024/03/31 10:29:01;;;;;;;;;;;;;;;15.47;50.67;96208.81;5071012;28;19928;-85
2024/03/31 10:31:47;;;;;;;;;;;;;;;15.59;50.34;96213.94;5087128;28;19925;-84
2024/03/31 10:34:34;;;;;;;;;;;;;;;15.73;50.34;96221.44;5086942;28;19924;-84
2024/03/31 10:37:22;;;;;;;;;;;;;;;15.76;49.87;96215.19;5081136;28;19931;-86
2024/03/31 10:40:11;;;;;;;;;;;;;;;15.88;50.13;96211.34;5073783;28;19928;-85
2024/03/31 10:42:57;;;;;;;;;;;;;;;15.95;50.04;96216.81;5069535;28;19924;-85
2024/03/31 10:45:45;;;;;;;;;;;;;;;15.95;50.06;96208.59;5074241;28;19978;-86
2024/03/31 10:48:31;;;;;;;;;;;;;;;16.01;48.78;96201.56;5064462;28;19931;-85
2024/03/31 10:51:23;;;;;;;;;;;;;;;16.05;49.83;96205.13;5074573;28;20059;-85
2024/03/31 10:54:29;;;;;;;;;;;;;;;16.05;48.53;96198.84;5072722;28;19932;-85
2024/03/31 10:57:18;;;;;;;;;;;;;;;16.21;48.53;96199.28;5086181;28;20357;-85
2024/03/31 11:00:06;;;;;;;;;;;;;;;16.26;48.88;96201.63;5074806;28;19928;-85
2024/03/31 11:02:54;;;;;;;;;;;;;;;16.37;49.08;96202.41;5087127;28;19928;-86
2024/03/31 11:05:40;;;;;;;;;;;;;;;16.49;48.60;96209.47;5088175;28;20006;-85
2024/03/31 11:08:27;;;;;;;;;;;;;;;16.56;47.89;96203.19;5086659;28;19932;-86
2024/03/31 11:11:15;;;;;;;;;;;;;;;16.66;49.08;96205.94;5089067;28;20373;-86
2024/03/31 11:14:05;;;;;;;;;;;;;;;16.75;47.89;96203.63;5071255;28;19924;-86
2024/03/31 11:16:52;;;;;;;;;;;;;;;16.75;47.52;96202.84;5082202;28;19924;-86
2024/03/31 11:19:39;;;;;;;;;;;;;;;16.82;46.87;96207.53;5083106;28;19928;-86
2024/03/31 11:22:26;;;;;;;;;;;;;;;16.77;47.70;96200.47;5067169;28;20254;-85
2024/03/31 11:25:13;;;;;;;;;;;;;;;16.81;47.76;96203.22;5075390;28;20042;-85
2024/03/31 11:28:00;;;;;;;;;;;;;;;16.85;47.91;96212.25;5092628;28;20410;-86
2024/03/31 11:30:49;;;;;;;;;;;;;;;16.92;47.57;96206.72;5091203;28;19989;-86
2024/03/31 11:33:35;;;;;;;;;;;;;;;16.93;47.55;96206.34;5080134;28;19934;-86
2024/03/31 11:36:22;;;;;;;;;;;;;;;16.99;47.88;96190.25;5075550;28;19924;-86
2024/03/31 11:39:09;;;;;;;;;;;;;;;16.92;47.26;96188.31;5073764;28;19932;-86
2024/03/31 11:41:57;;;;;;;;;;;;;;;17.00;47.43;96184.41;5075850;28;20146;-86
2024/03/31 11:44:45;;;;;;;;;;;;;;;17.10;47.40;96179.25;5092427;28;19924;-86
2024/03/31 11:47:32;;;;;;;;;;;;;;;17.18;47.03;96170.63;5100764;28;19970;-85
2024/03/31 11:50:18;;;;;;;;;;;;;;;17.28;46.70;96169.03;5089220;28;19924;-86
2024/03/31 11:53:05;;;;;;;;;;;;;;;17.29;46.43;96165.88;5075964;28;19924;-85
2024/03/31 11:55:52;;;;;;;;;;;;;;;17.32;46.01;96164.31;5082705;28;19928;-86
2024/03/31 11:58:39;;;;;;;;;;;;;;;17.28;46.24;96164.31;5068741;28;19924;-85
2024/03/31 12:01:28;;;;;;;;;;;;;;;17.27;46.17;96156.50;5088014;28;19928;-86
2024/03/31 12:04:18;;;;;;;;;;;;;;;17.31;47.07;96150.97;5105807;28;19935;-86
2024/03/31 12:07:04;;;;;;;;;;;;;;;17.42;46.76;96151.75;5081748;28;19928;-86
2024/03/31 12:09:52;;;;;;;;;;;;;;;17.42;47.30;96147.03;5084771;28;19974;-86
2024/03/31 12:12:39;;;;;;;;;;;;;;;17.38;46.98;96149.00;5088363;28;19924;-85
2024/03/31 12:15:26;;;;;;;;;;;;;;;17.42;47.14;96141.53;5083234;28;19932;-85
2024/03/31 12:18:15;;;;;;;;;;;;;;;17.39;45.81;96138.78;5089092;28;19946;-86
2024/03/31 12:21:02;;;;;;;;;;;;;;;17.35;46.39;96147.03;5079815;28;19924;-86
2024/03/31 12:23:48;;;;;;;;;;;;;;;17.38;46.64;96140.75;5077790;28;19931;-85
2024/03/31 12:26:36;;;;;;;;;;;;;;;17.48;46.67;96142.69;5071180;28;19924;-86
2024/03/31 12:29:22;;;;;;;;;;;;;;;17.58;46.85;96143.00;5071819;28;19924;-86
2024/03/31 12:32:09;;;;;;;;;;;;;;;17.62;44.59;96133.56;5062976;28;20203;-87
2024/03/31 12:34:57;;;;;;;;;;;;;;;17.74;45.52;96135.91;5090667;28;20001;-86
2024/03/31 12:37:45;;;;;;;;;;;;;;;17.75;43.92;96142.19;5084910;28;19924;-85
2024/03/31 12:40:31;;;;;;;;;;;;;;;17.81;44.51;96129.59;5103187;28;20227;-86
2024/03/31 12:43:24;;;;;;;;;;;;;;;17.80;45.04;96128.81;5089850;28;19924;-86
2024/03/31 12:46:11;;;;;;;;;;;;;;;17.85;44.93;96121.34;5090630;28;19963;-87
2024/03/31 12:49:00;;;;;;;;;;;;;;;17.85;44.31;96124.88;5088000;28;19958;-85
2024/03/31 12:51:53;;;;;;;;;;;;;;;17.84;44.52;96120.53;5086070;28;20394;-87
2024/03/31 12:54:40;;;;;;;;;;;;;;;17.86;43.83;96114.66;5083266;28;19928;-85
2024/03/31 12:57:27;;;;;;;;;;;;;;;17.87;43.11;96107.97;5074828;28;20299;-86
2024/03/31 13:00:14;;;;;;;;;;;;;;;17.87;44.30;96099.72;5083926;28;19931;-86
2024/03/31 13:03:00;;;;;;;;;;;;;;;17.88;43.89;96096.56;5075073;28;19924;-86
2024/03/31 13:05:48;;;;;;;;;;;;;;;17.89;42.46;96087.13;5089092;28;19928;-86
2024/03/31 13:08:36;;;;;;;;;;;;;;;17.96;43.34;96080.84;5076787;28;19931;-85
2024/03/31 13:11:23;;;;;;;;;;;;;;;18.08;42.58;96077.59;5089788;28;19924;-86
2024/03/31 13:14:11;;;;;;;;;;;;;;;18.15;42.36;96072.03;5084407;28;19935;-86
2024/03/31 13:16:59;;;;;;;;;;;;;;;18.20;41.23;96063.34;5081986;28;19932;-85
2024/03/31 13:19:45;;;;;;;;;;;;;;;18.24;41.58;96052.34;5060148;28;19967;-85
2024/03/31 13:22:35;;;;;;;;;;;;;;;18.30;41.83;96047.94;5074146;28;19924;-86
2024/03/31 13:25:22;;;;;;;;;;;;;;;18.42;42.53;96052.16;5070635;28;19928;-86
2024/03/31 13:28:11;;;;;;;;;;;;;;;18.37;42.38;96058.09;5088816;28;19924;-86
2024/03/31 13:30:58;;;;;;;;;;;;;;;18.31;42.70;96047.53;5091520;28;20041;-85
2024/03/31 13:33:45;;;;;;;;;;;;;;;18.29;42.82;96058.16;5069733;28;19924;-86
2024/03/31 13:36:34;;;;;;;;;;;;;;;18.31;43.78;96046.75;5076339;28;20334;-85
2024/03/31 13:39:22;;;;;;;;;;;;;;;18.34;41.58;96032.22;5087171;28;19966;-86
2024/03/31 13:42:09;;;;;;;;;;;;;;;18.37;40.23;96027.84;5087131;28;20259;-85
2024/03/31 13:44:57;;;;;;;;;;;;;;;18.46;42.36;96031.69;5082740;28;20330;-85
2024/03/31 13:47:43;;;;;;;;;;;;;;;18.56;43.50;96030.81;5078640;28;19930;-85
2024/03/31 13:50:31;;;;;;;;;;;;;;;18.64;42.64;96031.50;5075243;28;19924;-85
2024/03/31 13:53:17;;;;;;;;;;;;;;;18.69;45.08;96028.31;5084747;28;19928;-85
2024/03/31 13:56:04;;;;;;;;;;;;;;;18.65;41.86;96011.06;5083420;28;19982;-85
2024/03/31 13:58:52;;;;;;;;;;;;;;;18.56;39.97;96002.53;5074631;28;19929;-86
2024/03/31 14:01:40;;;;;;;;;;;;;;;18.54;41.56;96005.69;5088130;28;20255;-85
2024/03/31 14:04:26;;;;;;;;;;;;;;;18.48;39.48;96006.53;5075915;28;20194;-85
2024/03/31 14:07:13;;;;;;;;;;;;;;;18.48;41.11;96001.03;5073746;28;19924;-86
2024/03/31 14:10:00;;;;;;;;;;;;;;;18.41;39.63;95993.63;5066388;28;20379;-86
2024/03/31 14:12:47;;;;;;;;;;;;;;;18.44;42.24;96000.31;5079524;28;19928;-85
2024/03/31 14:15:36;;;;;;;;;;;;;;;18.43;41.54;96002.28;5073974;28;19924;-85
2024/03/31 14:18:23;;;;;;;;;;;;;;;18.44;41.02;96000.31;5082722;28;19929;-85
2024/03/31 14:21:10;;;;;;;;;;;;;;;18.45;41.86;95997.13;5088775;28;19924;-85
2024/03/31 14:23:57;;;;;;;;;;;;;;;18.44;41.48;95992.06;5083897;28;20358;-86
2024/03/31 14:26:44;;;;;;;;;;;;;;;18.40;40.47;95994.84;5084865;28;20294;-86
2024/03/31 14:29:34;;;;;;;;;;;;;;;18.43;41.10;95993.22;5071587;28;19928;-85
2024/03/31 14:32:23;;;;;;;;;;;;;;;18.40;41.20;95994.06;5081098;28;19931;-86